sensor_id;sensor_type;location;lat;lon;timestamp;temperature;humidity
20422;DHT22;10370;53.102;18.034;2023-07-29T00:03:31;13.40;99.90
20422;DHT22;10370;53.102;18.034;2023-07-29T00:08:54;13.20;99.90
20422;DHT22;10370;53.102;18.034;2023-07-29T00:14:17;13.10;99.90
20422;DHT22;10370;53.102;18.034;2023-07-29T00:19:39;13.10;99.90
20422;DHT22;10370;53.102;18.034;2023-07-29T00:25:02;13.00;99.90
20422;DHT22;10370;53.102;18.034;2023-07-29T00:30:25;12.90;99.90
20422;DHT22;10370;53.102;18.034;2023-07-29T00:35:47;12.90;99.90
20422;DHT22;10370;53.102;18.034;2023-07-29T00:41:11;12.80;99.90
20422;DHT22;10370;53.102;18.034;2023-07-29T00:46:36;12.70;99.90
20422;DHT22;10370;53.102;18.034;2023-07-29T00:52:00;12.60;99.90
20422;DHT22;10370;53.102;18.034;2023-07-29T00:57:23;12.60;99.90
20422;DHT22;10370;53.102;18.034;2023-07-29T01:02:47;12.40;99.90
20422;DHT22;10370;53.102;18.034;2023-07-29T01:08:32;12.40;99.90
20422;DHT22;10370;53.102;18.034;2023-07-29T01:19:55;12.30;99.90
20422;DHT22;10370;53.102;18.034;2023-07-29T01:25:20;12.20;99.90
20422;DHT22;10370;53.102;18.034;2023-07-29T01:30:43;12.20;99.90
20422;DHT22;10370;53.102;18.034;2023-07-29T01:36:11;12.20;99.90
20422;DHT22;10370;53.102;18.034;2023-07-29T01:41:36;12.20;99.90
20422;DHT22;10370;53.102;18.034;2023-07-29T01:46:59;12.10;99.90
20422;DHT22;10370;53.102;18.034;2023-07-29T01:52:22;12.20;99.90
20422;DHT22;10370;53.102;18.034;2023-07-29T01:57:45;12.10;99.90
20422;DHT22;10370;53.102;18.034;2023-07-29T02:03:08;12.10;99.90
20422;DHT22;10370;53.102;18.034;2023-07-29T02:08:31;12.00;99.90
20422;DHT22;10370;53.102;18.034;2023-07-29T02:13:58;12.00;99.90
20422;DHT22;10370;53.102;18.034;2023-07-29T02:19:20;11.90;99.90
20422;DHT22;10370;53.102;18.034;2023-07-29T02:24:44;11.90;99.90
20422;DHT22;10370;53.102;18.034;2023-07-29T02:30:07;11.80;99.90
20422;DHT22;10370;53.102;18.034;2023-07-29T02:35:32;11.70;99.90
20422;DHT22;10370;53.102;18.034;2023-07-29T02:40:54;11.60;99.90
20422;DHT22;10370;53.102;18.034;2023-07-29T02:46:17;11.60;99.90
20422;DHT22;10370;53.102;18.034;2023-07-29T02:51:40;11.50;99.90
20422;DHT22;10370;53.102;18.034;2023-07-29T02:57:03;11.50;99.90
20422;DHT22;10370;53.102;18.034;2023-07-29T03:02:26;11.40;99.90
20422;DHT22;10370;53.102;18.034;2023-07-29T03:07:49;11.50;99.90
20422;DHT22;10370;53.102;18.034;2023-07-29T03:13:12;11.50;99.90
20422;DHT22;10370;53.102;18.034;2023-07-29T03:18:35;11.40;99.90
20422;DHT22;10370;53.102;18.034;2023-07-29T03:23:58;11.40;99.90
20422;DHT22;10370;53.102;18.034;2023-07-29T03:29:21;11.40;99.90
20422;DHT22;10370;53.102;18.034;2023-07-29T03:34:44;11.50;99.90
20422;DHT22;10370;53.102;18.034;2023-07-29T03:40:07;11.60;99.90
20422;DHT22;10370;53.102;18.034;2023-07-29T03:45:31;11.70;99.90
20422;DHT22;10370;53.102;18.034;2023-07-29T03:50:54;11.80;99.90
20422;DHT22;10370;53.102;18.034;2023-07-29T03:56:17;11.90;99.90
20422;DHT22;10370;53.102;18.034;2023-07-29T04:01:40;11.90;99.90
20422;DHT22;10370;53.102;18.034;2023-07-29T04:07:03;12.10;99.90
20422;DHT22;10370;53.102;18.034;2023-07-29T04:12:25;12.20;99.90
20422;DHT22;10370;53.102;18.034;2023-07-29T04:17:48;12.50;99.90
20422;DHT22;10370;53.102;18.034;2023-07-29T04:23:11;12.60;99.90
20422;DHT22;10370;53.102;18.034;2023-07-29T04:28:34;12.90;99.90
20422;DHT22;10370;53.102;18.034;2023-07-29T04:33:56;13.00;99.90
20422;DHT22;10370;53.102;18.034;2023-07-29T04:39:19;13.10;99.90
20422;DHT22;10370;53.102;18.034;2023-07-29T04:44:42;13.50;99.90
20422;DHT22;10370;53.102;18.034;2023-07-29T04:50:06;13.70;99.90
20422;DHT22;10370;53.102;18.034;2023-07-29T04:55:29;14.50;99.90
20422;DHT22;10370;53.102;18.034;2023-07-29T05:00:52;15.60;99.90
20422;DHT22;10370;53.102;18.034;2023-07-29T05:06:14;16.60;99.90
20422;DHT22;10370;53.102;18.034;2023-07-29T05:11:37;17.80;99.90
20422;DHT22;10370;53.102;18.034;2023-07-29T05:17:00;19.80;99.90
20422;DHT22;10370;53.102;18.034;2023-07-29T05:22:23;22.20;99.90
20422;DHT22;10370;53.102;18.034;2023-07-29T05:27:47;23.50;99.90
20422;DHT22;10370;53.102;18.034;2023-07-29T05:33:18;23.90;99.90
20422;DHT22;10370;53.102;18.034;2023-07-29T05:38:45;25.00;99.90
20422;DHT22;10370;53.102;18.034;2023-07-29T05:44:08;25.90;99.90
20422;DHT22;10370;53.102;18.034;2023-07-29T05:49:32;27.80;99.90
20422;DHT22;10370;53.102;18.034;2023-07-29T05:54:54;28.10;99.90
20422;DHT22;10370;53.102;18.034;2023-07-29T06:00:17;28.70;99.90
20422;DHT22;10370;53.102;18.034;2023-07-29T06:05:40;28.50;99.90
20422;DHT22;10370;53.102;18.034;2023-07-29T06:11:02;28.80;99.90
20422;DHT22;10370;53.102;18.034;2023-07-29T06:16:25;28.20;99.90
20422;DHT22;10370;53.102;18.034;2023-07-29T06:21:48;24.80;99.90
20422;DHT22;10370;53.102;18.034;2023-07-29T06:27:14;22.80;99.90
20422;DHT22;10370;53.102;18.034;2023-07-29T06:32:37;21.50;99.90
20422;DHT22;10370;53.102;18.034;2023-07-29T06:38:00;21.20;99.90
20422;DHT22;10370;53.102;18.034;2023-07-29T06:43:22;21.20;99.90
20422;DHT22;10370;53.102;18.034;2023-07-29T06:48:45;21.30;99.90
20422;DHT22;10370;53.102;18.034;2023-07-29T06:54:08;21.30;99.90
20422;DHT22;10370;53.102;18.034;2023-07-29T06:59:31;21.30;99.90
20422;DHT22;10370;53.102;18.034;2023-07-29T07:04:53;21.30;99.90
20422;DHT22;10370;53.102;18.034;2023-07-29T07:10:16;21.30;99.90
20422;DHT22;10370;53.102;18.034;2023-07-29T07:15:39;21.30;99.90
20422;DHT22;10370;53.102;18.034;2023-07-29T07:21:01;21.40;99.90
20422;DHT22;10370;53.102;18.034;2023-07-29T07:26:24;21.70;99.90
20422;DHT22;10370;53.102;18.034;2023-07-29T07:31:52;21.60;99.90
20422;DHT22;10370;53.102;18.034;2023-07-29T07:37:15;21.70;99.90
20422;DHT22;10370;53.102;18.034;2023-07-29T07:42:38;21.60;99.90
20422;DHT22;10370;53.102;18.034;2023-07-29T07:48:01;21.90;99.90
20422;DHT22;10370;53.102;18.034;2023-07-29T07:53:26;21.90;99.90
20422;DHT22;10370;53.102;18.034;2023-07-29T07:58:49;22.00;99.90
20422;DHT22;10370;53.102;18.034;2023-07-29T08:04:11;22.10;99.90
20422;DHT22;10370;53.102;18.034;2023-07-29T08:09:34;22.10;99.90
20422;DHT22;10370;53.102;18.034;2023-07-29T08:14:57;22.20;99.90
20422;DHT22;10370;53.102;18.034;2023-07-29T08:20:20;22.20;99.90
20422;DHT22;10370;53.102;18.034;2023-07-29T08:25:42;22.30;99.90
20422;DHT22;10370;53.102;18.034;2023-07-29T08:31:05;22.40;99.90
20422;DHT22;10370;53.102;18.034;2023-07-29T08:36:28;22.50;99.90
20422;DHT22;10370;53.102;18.034;2023-07-29T08:42:07;22.60;99.90
20422;DHT22;10370;53.102;18.034;2023-07-29T08:47:32;22.60;99.90
20422;DHT22;10370;53.102;18.034;2023-07-29T08:52:56;22.90;99.90
20422;DHT22;10370;53.102;18.034;2023-07-29T08:58:21;23.00;99.90
20422;DHT22;10370;53.102;18.034;2023-07-29T09:03:44;23.30;99.90
20422;DHT22;10370;53.102;18.034;2023-07-29T09:09:08;23.30;99.90
20422;DHT22;10370;53.102;18.034;2023-07-29T09:14:31;23.40;99.90
20422;DHT22;10370;53.102;18.034;2023-07-29T09:19:54;23.80;99.90
20422;DHT22;10370;53.102;18.034;2023-07-29T09:25:23;23.90;99.90
20422;DHT22;10370;53.102;18.034;2023-07-29T09:30:46;24.00;99.90
20422;DHT22;10370;53.102;18.034;2023-07-29T09:36:10;23.80;99.90
20422;DHT22;10370;53.102;18.034;2023-07-29T09:41:32;23.70;99.90
20422;DHT22;10370;53.102;18.034;2023-07-29T09:46:58;23.50;99.90
20422;DHT22;10370;53.102;18.034;2023-07-29T09:52:22;23.70;99.90
20422;DHT22;10370;53.102;18.034;2023-07-29T09:57:45;23.90;99.90
20422;DHT22;10370;53.102;18.034;2023-07-29T10:03:08;24.00;99.90
20422;DHT22;10370;53.102;18.034;2023-07-29T10:08:33;24.00;99.90
20422;DHT22;10370;53.102;18.034;2023-07-29T10:14:00;23.90;99.90
20422;DHT22;10370;53.102;18.034;2023-07-29T10:19:29;24.00;99.90
20422;DHT22;10370;53.102;18.034;2023-07-29T10:24:56;24.00;99.90
20422;DHT22;10370;53.102;18.034;2023-07-29T10:30:25;24.30;99.90
20422;DHT22;10370;53.102;18.034;2023-07-29T10:35:48;24.40;99.90
20422;DHT22;10370;53.102;18.034;2023-07-29T10:41:11;24.70;99.90
20422;DHT22;10370;53.102;18.034;2023-07-29T10:46:35;24.70;99.90
20422;DHT22;10370;53.102;18.034;2023-07-29T10:51:58;24.90;99.90
20422;DHT22;10370;53.102;18.034;2023-07-29T10:57:38;25.00;99.90
20422;DHT22;10370;53.102;18.034;2023-07-29T11:03:06;25.00;99.90
20422;DHT22;10370;53.102;18.034;2023-07-29T11:08:30;25.10;99.90
20422;DHT22;10370;53.102;18.034;2023-07-29T11:13:53;25.10;99.90
20422;DHT22;10370;53.102;18.034;2023-07-29T11:19:19;25.10;99.90
20422;DHT22;10370;53.102;18.034;2023-07-29T11:24:42;25.50;99.90
20422;DHT22;10370;53.102;18.034;2023-07-29T11:30:06;25.40;99.90
20422;DHT22;10370;53.102;18.034;2023-07-29T11:35:32;25.30;99.90
20422;DHT22;10370;53.102;18.034;2023-07-29T11:41:00;25.10;99.90
20422;DHT22;10370;53.102;18.034;2023-07-29T11:46:23;25.20;99.90
20422;DHT22;10370;53.102;18.034;2023-07-29T11:51:46;25.50;99.90
20422;DHT22;10370;53.102;18.034;2023-07-29T11:57:09;25.40;99.90
20422;DHT22;10370;53.102;18.034;2023-07-29T12:02:33;25.60;99.90
20422;DHT22;10370;53.102;18.034;2023-07-29T12:08:03;25.70;99.90
20422;DHT22;10370;53.102;18.034;2023-07-29T12:13:26;25.50;99.90
20422;DHT22;10370;53.102;18.034;2023-07-29T12:18:50;25.60;99.90
20422;DHT22;10370;53.102;18.034;2023-07-29T12:24:14;25.50;99.90
20422;DHT22;10370;53.102;18.034;2023-07-29T12:29:41;25.60;99.90
20422;DHT22;10370;53.102;18.034;2023-07-29T12:35:10;25.60;99.90
20422;DHT22;10370;53.102;18.034;2023-07-29T12:40:38;25.70;99.90
20422;DHT22;10370;53.102;18.034;2023-07-29T12:46:02;26.00;99.90
20422;DHT22;10370;53.102;18.034;2023-07-29T12:51:25;26.10;99.90
20422;DHT22;10370;53.102;18.034;2023-07-29T12:56:48;26.10;99.90
20422;DHT22;10370;53.102;18.034;2023-07-29T13:02:11;26.10;99.90
20422;DHT22;10370;53.102;18.034;2023-07-29T13:07:33;26.30;99.90
20422;DHT22;10370;53.102;18.034;2023-07-29T13:12:56;26.30;99.90
20422;DHT22;10370;53.102;18.034;2023-07-29T13:18:21;26.20;99.90
20422;DHT22;10370;53.102;18.034;2023-07-29T13:23:44;26.30;99.90
20422;DHT22;10370;53.102;18.034;2023-07-29T13:29:08;26.50;99.90
20422;DHT22;10370;53.102;18.034;2023-07-29T13:34:31;26.50;99.90
20422;DHT22;10370;53.102;18.034;2023-07-29T13:39:56;26.70;99.90
20422;DHT22;10370;53.102;18.034;2023-07-29T13:45:19;26.70;99.90
20422;DHT22;10370;53.102;18.034;2023-07-29T13:50:41;26.40;99.90
20422;DHT22;10370;53.102;18.034;2023-07-29T13:56:06;26.50;99.90
20422;DHT22;10370;53.102;18.034;2023-07-29T14:01:29;26.70;99.90
20422;DHT22;10370;53.102;18.034;2023-07-29T14:06:53;26.90;99.90
20422;DHT22;10370;53.102;18.034;2023-07-29T14:12:20;26.80;99.90
20422;DHT22;10370;53.102;18.034;2023-07-29T14:17:43;27.00;99.90
20422;DHT22;10370;53.102;18.034;2023-07-29T14:23:05;26.90;99.90
20422;DHT22;10370;53.102;18.034;2023-07-29T14:28:28;26.70;99.90
20422;DHT22;10370;53.102;18.034;2023-07-29T14:33:52;26.70;99.90
20422;DHT22;10370;53.102;18.034;2023-07-29T14:39:18;26.80;99.90
20422;DHT22;10370;53.102;18.034;2023-07-29T14:44:41;26.80;99.90
20422;DHT22;10370;53.102;18.034;2023-07-29T14:50:04;26.90;99.90
20422;DHT22;10370;53.102;18.034;2023-07-29T14:55:27;26.80;99.90
20422;DHT22;10370;53.102;18.034;2023-07-29T15:00:50;26.90;99.90
20422;DHT22;10370;53.102;18.034;2023-07-29T15:06:13;26.90;99.90
20422;DHT22;10370;53.102;18.034;2023-07-29T15:11:35;26.70;99.90
20422;DHT22;10370;53.102;18.034;2023-07-29T15:16:59;26.40;99.90
20422;DHT22;10370;53.102;18.034;2023-07-29T15:22:25;26.20;99.90
20422;DHT22;10370;53.102;18.034;2023-07-29T15:27:53;26.00;99.90
20422;DHT22;10370;53.102;18.034;2023-07-29T15:33:16;25.80;99.90
20422;DHT22;10370;53.102;18.034;2023-07-29T15:38:39;25.60;99.90
20422;DHT22;10370;53.102;18.034;2023-07-29T15:44:02;25.30;99.90
20422;DHT22;10370;53.102;18.034;2023-07-29T15:49:25;24.20;99.90
20422;DHT22;10370;53.102;18.034;2023-07-29T15:54:53;22.40;99.90
20422;DHT22;10370;53.102;18.034;2023-07-29T16:00:42;21.60;99.90
20422;DHT22;10370;53.102;18.034;2023-07-29T16:06:59;21.00;99.90
20422;DHT22;10370;53.102;18.034;2023-07-29T16:12:21;20.50;99.90
20422;DHT22;10370;53.102;18.034;2023-07-29T16:17:44;20.30;99.90
20422;DHT22;10370;53.102;18.034;2023-07-29T16:23:10;20.20;99.90
20422;DHT22;10370;53.102;18.034;2023-07-29T16:28:34;20.00;99.90
20422;DHT22;10370;53.102;18.034;2023-07-29T16:33:57;20.00;99.90
20422;DHT22;10370;53.102;18.034;2023-07-29T16:39:20;20.10;99.90
20422;DHT22;10370;53.102;18.034;2023-07-29T16:44:43;20.20;99.90
20422;DHT22;10370;53.102;18.034;2023-07-29T16:50:12;20.30;99.90
20422;DHT22;10370;53.102;18.034;2023-07-29T16:55:35;20.10;99.90
20422;DHT22;10370;53.102;18.034;2023-07-29T17:00:58;20.00;99.90
20422;DHT22;10370;53.102;18.034;2023-07-29T17:06:23;20.00;99.90
20422;DHT22;10370;53.102;18.034;2023-07-29T17:11:46;20.00;99.90
20422;DHT22;10370;53.102;18.034;2023-07-29T17:17:13;20.00;99.90
20422;DHT22;10370;53.102;18.034;2023-07-29T17:22:37;20.10;99.90
20422;DHT22;10370;53.102;18.034;2023-07-29T17:28:00;19.90;99.90
20422;DHT22;10370;53.102;18.034;2023-07-29T17:40:23;18.90;99.90
20422;DHT22;10370;53.102;18.034;2023-07-29T17:46:05;18.30;99.90
20422;DHT22;10370;53.102;18.034;2023-07-29T17:51:28;18.20;99.90
20422;DHT22;10370;53.102;18.034;2023-07-29T17:56:51;18.20;99.90
20422;DHT22;10370;53.102;18.034;2023-07-29T18:02:15;18.00;99.90
20422;DHT22;10370;53.102;18.034;2023-07-29T18:07:38;18.00;99.90
20422;DHT22;10370;53.102;18.034;2023-07-29T18:13:01;17.90;99.90
20422;DHT22;10370;53.102;18.034;2023-07-29T18:18:26;17.90;99.90
20422;DHT22;10370;53.102;18.034;2023-07-29T18:23:49;17.90;99.90
20422;DHT22;10370;53.102;18.034;2023-07-29T18:29:12;18.00;99.90
20422;DHT22;10370;53.102;18.034;2023-07-29T18:34:36;18.00;99.90
20422;DHT22;10370;53.102;18.034;2023-07-29T18:39:59;18.00;99.90
20422;DHT22;10370;53.102;18.034;2023-07-29T18:45:22;17.90;99.90
20422;DHT22;10370;53.102;18.034;2023-07-29T18:50:49;18.10;99.90
20422;DHT22;10370;53.102;18.034;2023-07-29T18:56:13;18.00;99.90
20422;DHT22;10370;53.102;18.034;2023-07-29T19:01:36;17.90;99.90
20422;DHT22;10370;53.102;18.034;2023-07-29T19:06:59;17.90;99.90
20422;DHT22;10370;53.102;18.034;2023-07-29T19:12:22;17.90;99.90
20422;DHT22;10370;53.102;18.034;2023-07-29T19:17:45;17.90;99.90
20422;DHT22;10370;53.102;18.034;2023-07-29T19:23:07;17.90;99.90
20422;DHT22;10370;53.102;18.034;2023-07-29T19:28:30;17.90;99.90
20422;DHT22;10370;53.102;18.034;2023-07-29T19:33:53;17.90;99.90
20422;DHT22;10370;53.102;18.034;2023-07-29T19:39:17;17.80;99.90
20422;DHT22;10370;53.102;18.034;2023-07-29T19:44:40;17.90;99.90
20422;DHT22;10370;53.102;18.034;2023-07-29T19:50:03;17.80;99.90
20422;DHT22;10370;53.102;18.034;2023-07-29T19:55:26;17.80;99.90
20422;DHT22;10370;53.102;18.034;2023-07-29T20:00:49;17.70;99.90
20422;DHT22;10370;53.102;18.034;2023-07-29T20:06:13;17.60;99.90
20422;DHT22;10370;53.102;18.034;2023-07-29T20:11:35;17.60;99.90
20422;DHT22;10370;53.102;18.034;2023-07-29T20:17:03;17.50;99.90
20422;DHT22;10370;53.102;18.034;2023-07-29T20:22:26;17.40;99.90
20422;DHT22;10370;53.102;18.034;2023-07-29T20:27:49;17.40;99.90
20422;DHT22;10370;53.102;18.034;2023-07-29T20:33:12;17.40;99.90
20422;DHT22;10370;53.102;18.034;2023-07-29T20:38:34;17.30;99.90
20422;DHT22;10370;53.102;18.034;2023-07-29T20:43:57;17.20;99.90
20422;DHT22;10370;53.102;18.034;2023-07-29T20:49:20;17.10;99.90
20422;DHT22;10370;53.102;18.034;2023-07-29T20:54:43;17.00;99.90
20422;DHT22;10370;53.102;18.034;2023-07-29T21:00:06;16.90;99.90
20422;DHT22;10370;53.102;18.034;2023-07-29T21:05:35;16.90;99.90
20422;DHT22;10370;53.102;18.034;2023-07-29T21:10:58;16.80;99.90
20422;DHT22;10370;53.102;18.034;2023-07-29T21:16:21;16.80;99.90
20422;DHT22;10370;53.102;18.034;2023-07-29T21:21:44;16.80;99.90
20422;DHT22;10370;53.102;18.034;2023-07-29T21:27:08;16.70;99.90
20422;DHT22;10370;53.102;18.034;2023-07-29T21:32:31;16.80;99.90
20422;DHT22;10370;53.102;18.034;2023-07-29T21:37:54;16.80;99.90
20422;DHT22;10370;53.102;18.034;2023-07-29T21:43:20;16.80;99.90
20422;DHT22;10370;53.102;18.034;2023-07-29T21:48:43;16.70;99.90
20422;DHT22;10370;53.102;18.034;2023-07-29T21:54:06;16.70;99.90
20422;DHT22;10370;53.102;18.034;2023-07-29T21:59:29;16.70;99.90
20422;DHT22;10370;53.102;18.034;2023-07-29T22:04:55;16.80;99.90
20422;DHT22;10370;53.102;18.034;2023-07-29T22:10:17;16.80;99.90
20422;DHT22;10370;53.102;18.034;2023-07-29T22:15:40;17.00;99.90
20422;DHT22;10370;53.102;18.034;2023-07-29T22:21:03;17.10;99.90
20422;DHT22;10370;53.102;18.034;2023-07-29T22:26:26;17.20;99.90
20422;DHT22;10370;53.102;18.034;2023-07-29T22:31:49;17.10;99.90
20422;DHT22;10370;53.102;18.034;2023-07-29T22:37:12;17.00;99.90
20422;DHT22;10370;53.102;18.034;2023-07-29T22:42:35;17.00;99.90
20422;DHT22;10370;53.102;18.034;2023-07-29T22:47:57;16.90;99.90
20422;DHT22;10370;53.102;18.034;2023-07-29T22:53:20;16.90;99.90
20422;DHT22;10370;53.102;18.034;2023-07-29T22:58:43;16.90;99.90
20422;DHT22;10370;53.102;18.034;2023-07-29T23:04:06;17.00;99.90
20422;DHT22;10370;53.102;18.034;2023-07-29T23:09:29;17.00;99.90
20422;DHT22;10370;53.102;18.034;2023-07-29T23:14:52;17.00;99.90
20422;DHT22;10370;53.102;18.034;2023-07-29T23:20:16;17.00;99.90
20422;DHT22;10370;53.102;18.034;2023-07-29T23:25:38;17.00;99.90
20422;DHT22;10370;53.102;18.034;2023-07-29T23:31:01;17.00;99.90
20422;DHT22;10370;53.102;18.034;2023-07-29T23:36:24;17.00;99.90
20422;DHT22;10370;53.102;18.034;2023-07-29T23:41:47;17.00;99.90
20422;DHT22;10370;53.102;18.034;2023-07-29T23:47:09;17.00;99.90
20422;DHT22;10370;53.102;18.034;2023-07-29T23:52:32;17.00;99.90
20422;DHT22;10370;53.102;18.034;2023-07-29T23:57:55;17.10;99.90
